createdAt,value
2023-01-10T00:00:32.116Z,6.47
2023-01-10T00:02:58.951Z,3.97
2023-01-10T00:05:25.741Z,5.20
2023-01-10T00:07:52.539Z,5.30
2023-01-10T00:10:19.700Z,4.68
2023-01-10T00:13:05.211Z,3.92
2023-01-10T00:15:33.321Z,3.50
2023-01-10T00:18:00.125Z,5.05
2023-01-10T00:20:26.887Z,3.55
2023-01-10T00:22:53.649Z,4.03
2023-01-10T00:25:21.161Z,3.55
2023-01-10T00:28:04.596Z,3.15
2023-01-10T00:30:33.670Z,3.85
2023-01-10T00:33:00.586Z,3.90
2023-01-10T00:35:27.364Z,4.38
2023-01-10T00:37:58.686Z,4.38
2023-01-10T00:40:25.397Z,4.63
2023-01-10T00:43:10.740Z,3.25
2023-01-10T00:45:37.583Z,6.57
2023-01-10T00:48:04.353Z,4.75
2023-01-10T00:50:31.075Z,3.13
2023-01-10T00:52:57.841Z,2.95
2023-01-10T00:55:24.587Z,5.80
2023-01-10T00:57:51.952Z,3.45
2023-01-10T01:00:18.893Z,4.40
2023-01-10T01:02:46.061Z,5.57
2023-01-10T01:05:12.815Z,2.85
2023-01-10T01:07:39.551Z,2.90
2023-01-10T01:10:25.332Z,4.15
2023-01-10T01:12:52.748Z,2.88
2023-01-10T01:15:19.539Z,3.72
2023-01-10T01:17:47.599Z,3.45
2023-01-10T01:20:14.980Z,2.75
2023-01-10T01:22:42.146Z,3.17
2023-01-10T01:25:09.498Z,4.30
2023-01-10T01:27:38.015Z,3.22
2023-01-10T01:30:08.846Z,4.43
2023-01-10T01:32:35.619Z,4.03
2023-01-10T01:35:02.567Z,5.45
2023-01-10T01:37:30.234Z,3.55
2023-01-10T01:39:57.046Z,5.28
2023-01-10T01:42:30.561Z,6.25
2023-01-10T01:45:23.135Z,2.90
2023-01-10T01:47:59.220Z,3.45
2023-01-10T01:50:43.889Z,3.17
2023-01-10T01:53:44.486Z,3.58
2023-01-10T01:56:19.881Z,3.70
2023-01-10T01:58:55.438Z,5.13
2023-01-10T02:01:23.036Z,4.53
2023-01-10T02:04:03.469Z,3.50
2023-01-10T02:06:30.423Z,4.50
2023-01-10T02:09:15.974Z,3.40
2023-01-10T02:11:42.819Z,5.28
2023-01-10T02:14:12.287Z,6.20
2023-01-10T02:16:39.106Z,4.35
2023-01-10T02:19:17.683Z,5.38
2023-01-10T02:21:56.576Z,3.50
2023-01-10T02:24:45.685Z,7.78
2023-01-10T02:27:48.504Z,4.00
2023-01-10T02:30:37.193Z,4.90
2023-01-10T02:33:28.764Z,3.85
2023-01-10T02:36:18.820Z,6.70
2023-01-10T02:39:06.851Z,4.13
2023-01-10T02:41:47.196Z,5.75
2023-01-10T02:44:32.282Z,5.90
2023-01-10T02:46:59.176Z,6.38
2023-01-10T02:49:26.198Z,5.30
2023-01-10T02:51:53.171Z,5.03
2023-01-10T02:54:27.537Z,7.05
2023-01-10T02:57:13.105Z,6.97
2023-01-10T03:00:03.541Z,6.07
2023-01-10T03:03:01.550Z,3.50
2023-01-10T03:06:01.766Z,4.07
2023-01-10T03:08:40.754Z,7.72
2023-01-10T03:11:10.034Z,4.40
2023-01-10T03:13:45.853Z,5.95
2023-01-10T03:16:18.009Z,5.50
2023-01-10T03:18:53.592Z,6.68
2023-01-10T03:21:22.402Z,4.75
2023-01-10T03:23:52.748Z,5.50
2023-01-10T03:26:29.336Z,5.45
2023-01-10T03:29:02.440Z,9.13
2023-01-10T03:31:36.149Z,5.93
2023-01-10T03:34:03.532Z,4.95
2023-01-10T03:36:57.544Z,5.22
2023-01-10T03:42:08.126Z,6.50
2023-01-10T03:44:44.977Z,5.03
2023-01-10T03:47:32.813Z,5.63
2023-01-10T03:50:13.101Z,7.35
2023-01-10T03:52:42.124Z,7.45
2023-01-10T03:55:12.349Z,5.30
2023-01-10T03:57:42.584Z,7.43
2023-01-10T04:00:10.296Z,8.82
2023-01-10T04:02:37.116Z,6.38
2023-01-10T04:05:04.591Z,6.05
2023-01-10T04:07:31.684Z,7.75
2023-01-10T04:09:58.543Z,5.28
2023-01-10T04:12:25.308Z,6.40
2023-01-10T04:14:52.113Z,6.05
2023-01-10T04:17:19.248Z,6.32
2023-01-10T04:19:46.026Z,9.13
2023-01-10T04:22:13.140Z,5.60
2023-01-10T04:24:40.260Z,5.85
2023-01-10T04:27:07.383Z,8.30
2023-01-10T04:29:34.170Z,6.50
2023-01-10T04:32:01.093Z,6.50
2023-01-10T04:34:28.088Z,5.47
2023-01-10T04:36:54.835Z,8.25
2023-01-10T04:39:21.580Z,6.50
2023-01-10T04:41:48.311Z,6.55
2023-01-10T04:44:15.167Z,6.82
2023-01-10T04:46:41.939Z,7.72
2023-01-10T04:49:10.213Z,7.22
2023-01-10T04:51:37.132Z,7.50
2023-01-10T04:54:04.391Z,5.70
2023-01-10T04:56:31.107Z,6.07
2023-01-10T04:58:57.900Z,7.05
2023-01-10T05:01:25.916Z,6.03
2023-01-10T05:03:55.113Z,4.80
2023-01-10T05:06:23.203Z,5.28
2023-01-10T05:08:50.163Z,6.10
2023-01-10T05:11:17.007Z,5.45
2023-01-10T05:13:44.815Z,6.50
2023-01-10T05:16:12.338Z,6.15
2023-01-10T05:18:39.135Z,6.18
2023-01-10T05:21:08.682Z,6.90
2023-01-10T05:23:36.330Z,7.32
2023-01-10T05:26:18.369Z,5.78
2023-01-10T05:28:45.882Z,6.55
2023-01-10T05:31:15.408Z,5.03
2023-01-10T05:33:50.259Z,6.13
2023-01-10T05:36:18.140Z,7.78
2023-01-10T05:38:45.345Z,4.72
2023-01-10T05:41:12.109Z,5.72
2023-01-10T05:43:39.116Z,5.75
2023-01-10T05:46:06.023Z,5.07
2023-01-10T05:48:32.865Z,5.68
2023-01-10T05:50:59.655Z,6.63
2023-01-10T05:53:26.756Z,6.93
2023-01-10T05:55:59.469Z,6.50
2023-01-10T05:58:27.271Z,8.48
2023-01-10T06:00:58.846Z,8.63
2023-01-10T06:03:26.502Z,7.60
2023-01-10T06:05:56.714Z,6.95
2023-01-10T06:08:24.448Z,8.57
2023-01-10T06:10:51.409Z,8.85
2023-01-10T06:13:18.342Z,7.43
2023-01-10T06:15:45.143Z,9.40
2023-01-10T06:18:12.671Z,8.55
2023-01-10T06:20:40.889Z,8.85
2023-01-10T06:23:07.942Z,7.78
2023-01-10T06:25:42.895Z,7.03
2023-01-10T06:28:11.272Z,7.38
2023-01-10T06:30:38.274Z,6.45
2023-01-10T06:33:07.236Z,8.70
2023-01-10T06:35:34.705Z,6.88
2023-01-10T06:38:01.739Z,8.68
2023-01-10T06:40:29.417Z,7.28
2023-01-10T06:42:56.172Z,10.00
2023-01-10T06:45:22.898Z,7.22
2023-01-10T06:47:49.619Z,7.28
2023-01-10T06:50:16.565Z,6.97
2023-01-10T06:52:43.312Z,7.20
2023-01-10T06:55:10.525Z,8.27
2023-01-10T06:57:38.338Z,8.15
2023-01-10T07:00:08.254Z,6.82
2023-01-10T07:02:35.408Z,6.70
2023-01-10T07:05:02.268Z,6.57
2023-01-10T07:07:29.460Z,6.97
2023-01-10T07:09:56.178Z,6.82
2023-01-10T07:12:22.965Z,6.85
2023-01-10T07:14:49.696Z,7.13
2023-01-10T07:17:16.501Z,6.82
2023-01-10T07:19:43.229Z,8.02
2023-01-10T07:22:09.954Z,8.27
2023-01-10T07:24:36.676Z,6.70
2023-01-10T07:27:03.526Z,6.68
2023-01-10T07:29:30.250Z,6.28
2023-01-10T07:31:56.977Z,6.05
2023-01-10T07:34:23.737Z,7.75
2023-01-10T07:36:50.484Z,7.57
2023-01-10T07:39:17.195Z,8.43
2023-01-10T07:41:43.951Z,6.05
2023-01-10T07:44:10.762Z,7.30
2023-01-10T07:46:37.520Z,5.90
2023-01-10T07:49:04.337Z,7.43
2023-01-10T07:51:31.164Z,7.80
2023-01-10T07:53:57.970Z,5.65
2023-01-10T07:56:25.074Z,6.25
2023-01-10T07:58:51.787Z,6.50
2023-01-10T08:01:18.766Z,7.25
2023-01-10T08:03:45.659Z,7.32
2023-01-10T08:06:12.430Z,6.75
2023-01-10T08:08:39.432Z,6.57
2023-01-10T08:11:06.543Z,6.55
2023-01-10T08:13:33.484Z,7.63
2023-01-10T08:16:04.276Z,7.30
2023-01-10T08:18:31.082Z,7.22
2023-01-10T08:20:58.093Z,6.85
2023-01-10T08:23:24.960Z,6.97
2023-01-10T08:25:51.763Z,8.05
2023-01-10T08:28:18.930Z,6.03
2023-01-10T08:30:45.759Z,7.57
2023-01-10T08:33:12.706Z,7.40
2023-01-10T08:35:41.544Z,7.43
2023-01-10T08:38:09.133Z,7.60
2023-01-10T08:40:36.326Z,7.55
2023-01-10T08:43:09.532Z,8.63
2023-01-10T08:45:37.321Z,9.70
2023-01-10T08:48:05.582Z,9.77
2023-01-10T08:50:32.579Z,8.32
2023-01-10T08:53:00.471Z,7.30
2023-01-10T08:55:28.336Z,7.45
2023-01-10T08:57:55.339Z,8.43
2023-01-10T09:00:23.504Z,6.75
2023-01-10T09:02:50.787Z,6.85
2023-01-10T09:05:26.675Z,6.88
2023-01-10T09:07:58.859Z,8.48
2023-01-10T09:10:26.477Z,6.05
2023-01-10T09:12:56.172Z,6.80
2023-01-10T09:15:25.375Z,9.00
2023-01-10T09:17:56.286Z,8.75
2023-01-10T09:20:25.965Z,7.10
2023-01-10T09:22:53.128Z,9.35
2023-01-10T09:25:19.925Z,8.90
2023-01-10T09:27:46.666Z,7.75
2023-01-10T09:30:14.194Z,7.25
2023-01-10T09:32:41.048Z,7.30
2023-01-10T09:35:08.132Z,9.60
2023-01-10T09:37:34.948Z,8.48
2023-01-10T09:40:01.775Z,10.88
2023-01-10T09:42:39.721Z,6.78
2023-01-10T09:45:32.535Z,8.38
2023-01-10T09:48:04.442Z,7.28
2023-01-10T09:50:52.323Z,5.63
2023-01-10T09:53:23.943Z,5.90
2023-01-10T09:55:56.770Z,5.90
2023-01-10T09:58:31.138Z,5.35
2023-01-10T10:01:01.523Z,6.45
2023-01-10T10:04:16.334Z,7.70
2023-01-10T10:09:21.471Z,8.98
2023-01-10T10:12:00.855Z,5.35
2023-01-10T10:14:46.220Z,7.32
2023-01-10T10:17:29.626Z,7.85
2023-01-10T10:20:23.089Z,9.15
2023-01-10T10:23:06.387Z,7.18
2023-01-10T10:26:02.610Z,6.05
2023-01-10T10:28:55.144Z,7.13
2023-01-10T10:31:55.302Z,6.57
2023-01-10T10:34:41.037Z,7.40
2023-01-10T10:37:17.639Z,6.85
2023-01-10T10:39:55.193Z,7.78
2023-01-10T10:42:22.669Z,8.73
2023-01-10T10:44:58.929Z,8.05
2023-01-10T10:47:33.442Z,9.82
2023-01-10T10:50:08.808Z,7.40
2023-01-10T10:52:36.800Z,5.72
2023-01-10T10:55:05.916Z,6.32
2023-01-10T10:57:35.317Z,6.75
2023-01-10T11:00:03.978Z,8.45
2023-01-10T11:02:39.227Z,7.00
2023-01-10T11:05:17.723Z,10.80
2023-01-10T11:07:44.974Z,6.80
2023-01-10T11:10:34.978Z,8.60
2023-01-10T11:13:27.370Z,10.57
2023-01-10T11:15:56.174Z,7.95
2023-01-10T11:18:30.565Z,9.23
2023-01-10T11:21:05.399Z,6.22
2023-01-10T11:24:04.932Z,6.85
2023-01-10T11:26:41.027Z,6.00
2023-01-10T11:29:13.750Z,7.22
2023-01-10T11:31:41.434Z,11.57
2023-01-10T11:34:26.868Z,6.43
2023-01-10T11:37:01.763Z,9.57
2023-01-10T11:39:30.465Z,9.55
2023-01-10T11:41:59.544Z,10.90
2023-01-10T11:44:28.899Z,8.02
2023-01-10T11:46:59.545Z,9.50
2023-01-10T11:49:36.807Z,7.93
2023-01-10T11:52:13.029Z,7.50
2023-01-10T11:54:41.376Z,6.63
2023-01-10T11:57:19.551Z,9.18
2023-01-10T12:00:00.071Z,7.00
2023-01-10T12:02:37.035Z,10.45
2023-01-10T12:05:09.308Z,7.53
2023-01-10T12:08:06.242Z,10.32
2023-01-10T12:10:34.484Z,7.57
2023-01-10T12:13:14.346Z,8.88
2023-01-10T12:15:41.430Z,12.80
2023-01-10T12:18:10.630Z,10.75
2023-01-10T12:20:48.204Z,9.77
2023-01-10T12:23:21.720Z,8.18
2023-01-10T12:28:22.591Z,11.25
2023-01-10T12:30:51.829Z,6.68
2023-01-10T12:33:24.260Z,8.80
2023-01-10T12:36:06.930Z,8.27
2023-01-10T12:39:00.494Z,8.80
2023-01-10T12:41:51.854Z,6.60
2023-01-10T12:44:24.848Z,8.20
2023-01-10T12:47:09.403Z,9.75
2023-01-10T12:50:02.882Z,8.30
2023-01-10T12:52:45.738Z,8.88
2023-01-10T12:55:17.377Z,5.57
2023-01-10T12:57:51.604Z,6.97
2023-01-10T13:00:32.757Z,7.93
2023-01-10T13:03:09.222Z,9.82
2023-01-10T13:05:36.533Z,9.80
2023-01-10T13:08:06.927Z,4.53
2023-01-10T13:10:37.791Z,8.25
2023-01-10T13:13:13.491Z,6.72
2023-01-10T13:16:01.588Z,8.02
2023-01-10T13:18:31.347Z,9.63
2023-01-10T13:21:13.605Z,6.07
2023-01-10T13:23:49.161Z,9.70
2023-01-10T13:26:16.642Z,10.18
2023-01-10T13:29:00.536Z,13.35
2023-01-10T13:31:35.144Z,8.70
2023-01-10T13:34:13.044Z,10.63
2023-01-10T13:36:48.992Z,11.30
2023-01-10T13:39:31.916Z,8.85
2023-01-10T13:42:17.438Z,10.43
2023-01-10T13:45:09.900Z,7.35
2023-01-10T13:47:39.756Z,11.98
2023-01-10T13:50:36.367Z,7.28
2023-01-10T13:53:04.206Z,8.77
2023-01-10T13:55:42.425Z,8.65
2023-01-10T13:58:20.200Z,9.70
2023-01-10T14:01:14.037Z,10.70
2023-01-10T14:03:43.799Z,5.88
2023-01-10T14:06:29.340Z,8.98
2023-01-10T14:08:57.100Z,5.40
2023-01-10T14:11:33.537Z,8.98
2023-01-10T14:14:02.214Z,9.73
2023-01-10T14:16:30.866Z,9.45
2023-01-10T14:18:58.215Z,8.57
2023-01-10T14:21:27.373Z,8.82
2023-01-10T14:23:56.324Z,7.10
2023-01-10T14:26:32.306Z,8.55
2023-01-10T14:29:19.173Z,7.07
2023-01-10T14:31:50.037Z,5.03
2023-01-10T14:34:24.780Z,8.00
2023-01-10T14:36:59.020Z,7.88
2023-01-10T14:39:28.121Z,8.88
2023-01-10T14:42:06.807Z,8.23
2023-01-10T14:44:45.727Z,5.65
2023-01-10T14:47:33.663Z,6.80
2023-01-10T14:50:01.730Z,7.65
2023-01-10T14:52:30.393Z,8.95
2023-01-10T14:55:21.456Z,7.05
2023-01-10T14:57:54.852Z,6.63
2023-01-10T15:00:29.735Z,7.90
2023-01-10T15:02:58.990Z,7.20
2023-01-10T15:05:28.106Z,6.63
2023-01-10T15:07:56.375Z,6.20
2023-01-10T15:10:30.096Z,6.40
2023-01-10T15:13:01.391Z,6.40
2023-01-10T15:15:37.310Z,4.80
2023-01-10T15:18:25.278Z,4.18
2023-01-10T15:20:52.400Z,7.20
2023-01-10T15:23:20.815Z,7.55
2023-01-10T15:25:56.930Z,5.85
2023-01-10T15:28:23.724Z,5.75
2023-01-10T15:30:50.875Z,5.78
2023-01-10T15:33:24.488Z,7.35
2023-01-10T15:35:51.323Z,8.18
2023-01-10T15:38:21.957Z,4.13
2023-01-10T15:41:03.301Z,10.88
2023-01-10T15:43:31.815Z,6.63
2023-01-10T15:46:00.872Z,10.38
2023-01-10T15:48:36.481Z,9.52
2023-01-10T15:51:15.989Z,9.73
2023-01-10T15:54:03.538Z,9.25
2023-01-10T15:56:39.937Z,6.18
2023-01-10T15:59:20.748Z,9.50
2023-01-10T16:02:02.999Z,8.70
2023-01-10T16:04:34.593Z,6.68
2023-01-10T16:07:07.673Z,8.25
2023-01-10T16:09:35.783Z,8.18
2023-01-10T16:12:21.222Z,6.97
2023-01-10T16:14:48.144Z,7.50
2023-01-10T16:17:14.920Z,6.10
2023-01-10T16:19:41.646Z,10.73
2023-01-10T16:22:16.147Z,12.43
2023-01-10T16:24:43.670Z,9.18
2023-01-10T16:27:10.511Z,11.90
2023-01-10T16:29:37.636Z,7.78
2023-01-10T16:32:14.431Z,8.40
2023-01-10T16:34:41.433Z,9.68
2023-01-10T16:37:09.079Z,10.10
2023-01-10T16:39:35.826Z,8.98
2023-01-10T16:42:21.184Z,7.68
2023-01-10T16:44:47.923Z,7.93
2023-01-10T16:47:14.714Z,10.88
2023-01-10T16:49:41.842Z,7.30
2023-01-10T16:52:14.289Z,8.52
2023-01-10T16:54:41.085Z,5.95
2023-01-10T16:57:10.422Z,5.22
2023-01-10T16:59:38.898Z,5.35
2023-01-10T17:02:16.684Z,7.03
2023-01-10T17:04:43.534Z,7.15
2023-01-10T17:07:12.457Z,7.03
2023-01-10T17:09:39.327Z,9.93
2023-01-10T17:12:12.969Z,4.45
2023-01-10T17:14:39.783Z,8.73
2023-01-10T17:17:06.565Z,5.53
2023-01-10T17:19:33.591Z,7.35
2023-01-10T17:22:00.456Z,5.95
2023-01-10T17:24:29.562Z,4.85
2023-01-10T17:26:56.398Z,6.35
2023-01-10T17:29:24.287Z,9.32
2023-01-10T17:31:51.147Z,8.30
2023-01-10T17:34:18.030Z,7.47
2023-01-10T17:36:44.896Z,5.57
2023-01-10T17:39:11.661Z,6.75
2023-01-10T17:41:38.532Z,8.38
2023-01-10T17:44:05.495Z,7.68
2023-01-10T17:46:32.439Z,6.30
2023-01-10T17:48:59.167Z,7.55
2023-01-10T17:51:26.939Z,6.63
2023-01-10T17:53:55.660Z,8.30
2023-01-10T17:56:22.846Z,4.78
2023-01-10T17:58:51.563Z,6.07
2023-01-10T18:01:23.795Z,6.95
2023-01-10T18:06:24.356Z,9.90
2023-01-10T18:08:51.951Z,8.73
2023-01-10T18:11:21.347Z,6.88
2023-01-10T18:13:48.160Z,5.22
2023-01-10T18:16:14.906Z,7.38
2023-01-10T18:18:41.698Z,7.45
2023-01-10T18:21:16.520Z,11.32
2023-01-10T18:23:43.661Z,12.68
2023-01-10T18:26:11.789Z,11.88
2023-01-10T18:28:42.559Z,10.05
2023-01-10T18:31:17.690Z,16.35
2023-01-10T18:33:48.198Z,10.50
2023-01-10T18:36:17.569Z,11.23
2023-01-10T18:38:45.998Z,12.18
2023-01-10T18:41:14.432Z,12.68
2023-01-10T18:43:41.313Z,13.70
2023-01-10T18:46:12.133Z,8.20
2023-01-10T18:48:39.792Z,10.90
2023-01-10T18:51:06.864Z,12.77
2023-01-10T18:53:33.794Z,9.57
2023-01-10T18:56:04.404Z,12.45
2023-01-10T18:58:36.442Z,9.70
2023-01-10T19:01:14.414Z,9.32
2023-01-10T19:03:42.188Z,7.50
2023-01-10T19:06:11.405Z,10.13
2023-01-10T19:08:42.465Z,8.07
2023-01-10T19:11:15.380Z,11.75
2023-01-10T19:13:47.108Z,10.48
2023-01-10T19:16:17.486Z,9.63
2023-01-10T19:18:48.358Z,13.15
2023-01-10T19:21:15.622Z,13.65
2023-01-10T19:23:47.505Z,12.45
2023-01-10T19:26:15.094Z,8.75
2023-01-10T19:28:43.257Z,12.32
2023-01-10T19:31:21.241Z,13.15
2023-01-10T19:33:48.361Z,10.05
2023-01-10T19:36:15.959Z,11.07
2023-01-10T19:38:42.903Z,14.48
2023-01-10T19:41:09.859Z,13.02
2023-01-10T19:43:36.960Z,13.15
2023-01-10T19:46:11.363Z,12.95
2023-01-10T19:48:38.554Z,12.93
2023-01-10T19:51:11.243Z,10.38
2023-01-10T19:53:45.388Z,11.13
2023-01-10T19:56:18.352Z,8.95
2023-01-10T19:58:45.992Z,13.00
2023-01-10T20:01:18.369Z,10.95
2023-01-10T20:03:46.701Z,9.53
2023-01-10T20:06:19.922Z,8.20
2023-01-10T20:11:16.185Z,10.00
2023-01-10T20:13:45.012Z,12.05
2023-01-10T20:16:13.596Z,12.90
2023-01-10T20:18:40.962Z,10.45
2023-01-10T20:21:10.012Z,11.45
2023-01-10T20:23:39.143Z,8.07
2023-01-10T20:26:09.771Z,10.65
2023-01-10T20:28:37.395Z,14.90
2023-01-10T20:31:05.039Z,13.30
2023-01-10T20:33:34.445Z,12.35
2023-01-10T20:36:04.625Z,11.63
2023-01-10T20:38:32.376Z,10.60
2023-01-10T20:41:05.779Z,9.57
2023-01-10T20:46:10.950Z,9.27
2023-01-10T20:48:39.007Z,9.75
2023-01-10T20:51:06.638Z,10.50
2023-01-10T20:53:33.617Z,16.52
2023-01-10T20:56:09.344Z,10.82
2023-01-10T20:58:36.171Z,12.98
2023-01-10T21:01:03.744Z,9.45
2023-01-10T21:03:30.490Z,7.05
2023-01-10T21:05:58.678Z,13.80
2023-01-10T21:08:26.313Z,9.88
2023-01-10T21:10:53.044Z,12.82
2023-01-10T21:13:19.796Z,11.30
2023-01-10T21:15:47.778Z,10.68
2023-01-10T21:18:15.945Z,13.75
2023-01-10T21:20:44.518Z,10.23
2023-01-10T21:23:13.413Z,13.93
2023-01-10T21:25:40.519Z,9.48
2023-01-10T21:28:09.769Z,16.48
2023-01-10T21:30:37.566Z,11.18
2023-01-10T21:33:05.467Z,9.95
2023-01-10T21:35:33.139Z,10.45
2023-01-10T21:38:01.428Z,9.55
2023-01-10T21:40:29.338Z,11.80
2023-01-10T21:42:56.056Z,11.05
2023-01-10T21:45:23.274Z,11.52
2023-01-10T21:47:50.034Z,8.05
2023-01-10T21:50:17.668Z,11.30
2023-01-10T21:52:44.930Z,10.65
2023-01-10T21:55:14.513Z,12.63
2023-01-10T21:57:41.317Z,12.52
2023-01-10T22:00:08.733Z,12.70
2023-01-10T22:02:35.968Z,9.90
2023-01-10T22:05:02.790Z,12.45
2023-01-10T22:07:30.502Z,11.82
2023-01-10T22:09:57.248Z,18.05
2023-01-10T22:12:25.008Z,12.55
2023-01-10T22:14:52.080Z,12.38
2023-01-10T22:17:18.851Z,12.20
2023-01-10T22:19:45.616Z,19.10
2023-01-10T22:22:13.784Z,13.50
2023-01-10T22:24:43.649Z,8.38
2023-01-10T22:27:11.143Z,8.80
2023-01-10T22:29:38.240Z,10.82
2023-01-10T22:32:05.108Z,10.65
2023-01-10T22:34:32.117Z,10.95
2023-01-10T22:36:59.253Z,10.88
2023-01-10T22:39:26.092Z,10.23
2023-01-10T22:41:53.490Z,9.48
2023-01-10T22:44:23.561Z,14.30
2023-01-10T22:46:51.533Z,17.20
2023-01-10T22:49:18.401Z,10.32
2023-01-10T22:51:45.271Z,10.88
2023-01-10T22:54:15.248Z,8.77
2023-01-10T22:56:42.899Z,7.95
2023-01-10T22:59:09.952Z,9.70
2023-01-10T23:01:37.215Z,8.50
2023-01-10T23:04:04.351Z,10.88
2023-01-10T23:06:31.347Z,9.48
2023-01-10T23:08:58.201Z,9.65
2023-01-10T23:11:25.145Z,9.68
2023-01-10T23:13:51.897Z,11.25
2023-01-10T23:16:28.477Z,9.70
2023-01-10T23:18:56.933Z,10.38
2023-01-10T23:21:26.673Z,9.65
2023-01-10T23:23:54.944Z,9.30
2023-01-10T23:26:23.019Z,8.65
2023-01-10T23:28:50.985Z,10.45
2023-01-10T23:31:20.400Z,11.20
2023-01-10T23:33:48.248Z,11.82
2023-01-10T23:36:15.832Z,7.18
2023-01-10T23:38:42.744Z,8.70
2023-01-10T23:41:09.932Z,8.57
2023-01-10T23:43:37.669Z,6.45
2023-01-10T23:46:05.820Z,9.52
2023-01-10T23:48:32.983Z,6.80
2023-01-10T23:50:59.924Z,8.13
2023-01-10T23:53:26.691Z,7.05
2023-01-10T23:55:53.509Z,7.57
2023-01-10T23:58:20.725Z,9.50
